createdAt,value
2018-09-02T00:00:37.565Z,4.30
2018-09-02T00:03:06.833Z,4.30
2018-09-02T00:05:36.208Z,4.87
2018-09-02T00:08:07.440Z,4.60
2018-09-02T00:10:36.815Z,4.67
2018-09-02T00:13:06.077Z,4.83
2018-09-02T00:15:35.292Z,4.70
2018-09-02T00:18:04.479Z,5.10
2018-09-02T00:20:33.703Z,4.57
2018-09-02T00:23:04.642Z,5.03
2018-09-02T00:25:33.596Z,4.43
2018-09-02T00:28:02.569Z,4.73
2018-09-02T00:30:31.485Z,4.40
2018-09-02T00:33:00.467Z,5.57
2018-09-02T00:35:29.359Z,5.53
2018-09-02T00:37:58.286Z,4.70
2018-09-02T00:40:27.225Z,5.00
2018-09-02T00:42:56.118Z,4.73
2018-09-02T00:45:25.071Z,5.27
2018-09-02T00:47:55.087Z,4.70
2018-09-02T00:50:24.038Z,5.00
2018-09-02T00:52:52.977Z,4.87
2018-09-02T00:55:22.169Z,5.17
2018-09-02T00:57:51.154Z,5.00
2018-09-02T01:00:20.064Z,4.73
2018-09-02T01:02:49.041Z,4.87
2018-09-02T01:05:17.913Z,5.03
2018-09-02T01:07:46.868Z,5.27
2018-09-02T01:10:15.770Z,4.50
2018-09-02T01:12:44.684Z,5.43
2018-09-02T01:15:13.658Z,5.83
2018-09-02T01:17:42.664Z,5.13
2018-09-02T01:20:11.688Z,5.20
2018-09-02T01:22:40.604Z,5.07
2018-09-02T01:25:09.560Z,5.17
2018-09-02T01:27:38.495Z,5.17
2018-09-02T01:30:07.472Z,6.40
2018-09-02T01:32:36.398Z,4.53
2018-09-02T01:35:05.332Z,4.67
2018-09-02T01:37:34.224Z,5.30
2018-09-02T01:40:03.202Z,4.63
2018-09-02T01:42:32.096Z,5.27
2018-09-02T01:45:06.662Z,4.80
2018-09-02T01:47:36.518Z,5.03
2018-09-02T01:50:05.824Z,4.73
2018-09-02T01:52:34.732Z,4.97
2018-09-02T01:55:03.672Z,4.67
2018-09-02T01:57:32.632Z,5.90
2018-09-02T02:00:01.544Z,5.57
2018-09-02T02:02:30.468Z,6.03
2018-09-02T02:04:59.360Z,6.10
2018-09-02T02:07:28.248Z,6.30
2018-09-02T02:09:57.160Z,6.77
2018-09-02T02:12:26.066Z,6.93
2018-09-02T02:14:54.978Z,6.13
2018-09-02T02:17:23.996Z,6.57
2018-09-02T02:19:52.988Z,6.30
2018-09-02T02:22:21.886Z,6.53
2018-09-02T02:24:50.776Z,6.47
2018-09-02T02:27:19.766Z,5.53
2018-09-02T02:29:48.748Z,6.83
2018-09-02T02:32:17.685Z,6.40
2018-09-02T02:34:46.577Z,6.43
2018-09-02T02:37:15.680Z,6.30
2018-09-02T02:39:44.600Z,6.20
2018-09-02T02:42:13.532Z,6.40
2018-09-02T02:44:42.506Z,5.47
2018-09-02T02:47:11.422Z,5.83
2018-09-02T02:49:40.324Z,6.67
2018-09-02T02:52:09.360Z,6.43
2018-09-02T02:54:38.244Z,6.00
2018-09-02T02:57:07.264Z,5.30
2018-09-02T02:59:36.445Z,5.27
2018-09-02T03:02:05.573Z,6.10
2018-09-02T03:04:34.676Z,6.40
2018-09-02T03:07:03.620Z,6.00
2018-09-02T03:09:32.525Z,5.90
2018-09-02T03:12:01.443Z,6.17
2018-09-02T03:14:30.341Z,5.33
2018-09-02T03:16:59.236Z,6.23
2018-09-02T03:19:28.143Z,6.17
2018-09-02T03:21:57.073Z,5.77
2018-09-02T03:24:25.980Z,5.70
2018-09-02T03:26:54.947Z,6.00
2018-09-02T03:29:23.870Z,5.07
2018-09-02T03:31:52.739Z,4.63
2018-09-02T03:34:21.673Z,5.13
2018-09-02T03:36:50.610Z,5.27
2018-09-02T03:39:19.645Z,5.40
2018-09-02T03:41:48.589Z,5.90
2018-09-02T03:44:17.514Z,5.53
2018-09-02T03:46:46.407Z,5.13
2018-09-02T03:49:15.298Z,5.23
2018-09-02T03:51:44.218Z,5.50
2018-09-02T03:54:13.112Z,5.77
2018-09-02T03:56:44.090Z,6.40
2018-09-02T03:59:12.977Z,5.97
2018-09-02T04:01:41.915Z,5.40
2018-09-02T04:04:10.845Z,5.87
2018-09-02T04:06:39.746Z,5.97
2018-09-02T04:09:10.238Z,5.60
2018-09-02T04:11:39.319Z,5.70
2018-09-02T04:14:08.286Z,6.03
2018-09-02T04:16:37.179Z,5.37
2018-09-02T04:19:06.169Z,5.73
2018-09-02T04:21:35.167Z,5.90
2018-09-02T04:24:04.083Z,5.57
2018-09-02T04:26:33.085Z,5.97
2018-09-02T04:29:01.976Z,6.30
2018-09-02T04:31:30.896Z,5.67
2018-09-02T04:33:59.813Z,6.43
2018-09-02T04:36:28.711Z,5.90
2018-09-02T04:38:57.611Z,6.07
2018-09-02T04:41:26.599Z,6.60
2018-09-02T04:43:55.492Z,6.30
2018-09-02T04:46:24.445Z,6.10
2018-09-02T04:48:53.353Z,6.50
2018-09-02T04:51:22.309Z,6.50
2018-09-02T04:53:51.235Z,6.40
2018-09-02T04:56:20.148Z,6.37
2018-09-02T04:58:49.066Z,6.17
2018-09-02T05:01:18.005Z,6.40
2018-09-02T05:03:46.997Z,6.43
2018-09-02T05:06:15.914Z,5.97
2018-09-02T05:08:44.815Z,5.60
2018-09-02T05:11:13.733Z,6.10
2018-09-02T05:13:43.743Z,5.30
2018-09-02T05:16:12.655Z,6.47
2018-09-02T05:18:41.597Z,5.87
2018-09-02T05:21:10.493Z,6.03
2018-09-02T05:23:39.395Z,6.03
2018-09-02T05:26:08.379Z,5.63
2018-09-02T05:28:37.289Z,6.47
2018-09-02T05:31:06.331Z,5.67
2018-09-02T05:33:35.283Z,6.20
2018-09-02T05:36:04.235Z,6.53
2018-09-02T05:38:34.249Z,6.43
2018-09-02T05:41:03.135Z,5.57
2018-09-02T05:43:32.055Z,5.10
2018-09-02T05:46:00.995Z,6.30
2018-09-02T05:48:29.940Z,5.73
2018-09-02T05:50:58.906Z,5.97
2018-09-02T05:53:27.858Z,6.20
2018-09-02T05:55:56.781Z,5.80
2018-09-02T05:58:25.702Z,5.70
2018-09-02T06:00:54.611Z,6.00
2018-09-02T06:03:23.641Z,6.13
2018-09-02T06:05:52.950Z,5.93
2018-09-02T06:08:22.110Z,6.10
2018-09-02T06:10:51.353Z,5.83
2018-09-02T06:13:20.707Z,6.23
2018-09-02T06:15:50.373Z,6.30
2018-09-02T06:18:19.617Z,5.23
2018-09-02T06:20:48.905Z,6.00
2018-09-02T06:23:18.148Z,5.57
2018-09-02T06:25:47.358Z,5.77
2018-09-02T06:28:16.575Z,6.20
2018-09-02T06:30:45.826Z,5.20
2018-09-02T06:33:15.110Z,5.10
2018-09-02T06:35:44.259Z,6.07
2018-09-02T06:38:18.829Z,6.07
2018-09-02T06:40:47.781Z,5.63
2018-09-02T06:43:16.711Z,5.30
2018-09-02T06:45:45.678Z,5.60
2018-09-02T06:48:17.711Z,5.50
2018-09-02T06:50:47.133Z,5.57
2018-09-02T06:53:16.577Z,5.83
2018-09-02T06:55:45.771Z,5.40
2018-09-02T06:58:14.839Z,5.97
2018-09-02T07:00:43.817Z,5.60
2018-09-02T07:03:12.728Z,5.30
2018-09-02T07:05:42.530Z,6.23
2018-09-02T07:08:12.543Z,5.90
2018-09-02T07:10:42.544Z,5.83
2018-09-02T07:13:11.523Z,5.50
2018-09-02T07:15:40.467Z,5.80
2018-09-02T07:18:09.606Z,6.27
2018-09-02T07:20:38.762Z,5.90
2018-09-02T07:23:07.667Z,6.20
2018-09-02T07:25:36.604Z,5.73
2018-09-02T07:28:05.544Z,5.80
2018-09-02T07:30:34.498Z,6.50
2018-09-02T07:33:03.630Z,5.83
2018-09-02T07:35:32.656Z,6.50
2018-09-02T07:38:01.616Z,6.23
2018-09-02T07:40:30.672Z,6.57
2018-09-02T07:42:59.576Z,6.10
2018-09-02T07:45:28.519Z,6.00
2018-09-02T07:47:57.489Z,6.80
2018-09-02T07:50:26.344Z,6.13
2018-09-02T07:52:55.324Z,6.87
2018-09-02T07:55:24.250Z,6.10
2018-09-02T07:57:53.292Z,6.47
2018-09-02T08:00:22.216Z,7.20
2018-09-02T08:02:51.387Z,7.37
2018-09-02T08:05:20.405Z,6.40
2018-09-02T08:07:49.498Z,7.47
2018-09-02T08:10:18.414Z,6.83
2018-09-02T08:12:47.622Z,6.60
2018-09-02T08:15:16.343Z,6.90
2018-09-02T08:17:45.316Z,7.07
2018-09-02T08:20:14.271Z,6.17
2018-09-02T08:22:43.310Z,6.67
2018-09-02T08:25:12.172Z,7.13
2018-09-02T08:27:41.178Z,6.90
2018-09-02T08:30:10.120Z,7.33
2018-09-02T08:32:39.024Z,6.93
2018-09-02T08:35:08.062Z,7.47
2018-09-02T08:37:36.996Z,6.90
2018-09-02T08:40:06.188Z,7.43
2018-09-02T08:42:35.196Z,7.03
2018-09-02T08:45:04.108Z,7.90
2018-09-02T08:47:33.018Z,7.70
2018-09-02T08:50:01.950Z,7.13
2018-09-02T08:52:30.842Z,7.50
2018-09-02T08:55:00.195Z,7.83
2018-09-02T08:57:29.170Z,8.20
2018-09-02T08:59:59.211Z,8.00
2018-09-02T09:02:28.472Z,8.20
2018-09-02T09:04:57.400Z,8.63
2018-09-02T09:07:27.413Z,8.77
2018-09-02T09:09:56.358Z,8.27
2018-09-02T09:12:25.274Z,9.03
2018-09-02T09:14:54.472Z,9.63
2018-09-02T09:17:23.416Z,8.60
2018-09-02T09:19:52.318Z,9.03
2018-09-02T09:22:21.242Z,9.00
2018-09-02T09:24:50.327Z,8.77
2018-09-02T09:27:19.250Z,8.47
2018-09-02T09:29:48.258Z,8.73
2018-09-02T09:32:23.786Z,8.53
2018-09-02T09:34:52.756Z,9.20
2018-09-02T09:37:21.741Z,9.00
2018-09-02T09:39:50.676Z,9.10
2018-09-02T09:42:19.572Z,8.70
2018-09-02T09:44:48.526Z,9.00
2018-09-02T09:47:17.499Z,9.43
2018-09-02T09:49:46.461Z,8.50
2018-09-02T09:52:15.442Z,9.13
2018-09-02T09:54:44.917Z,8.90
2018-09-02T09:57:13.847Z,8.50
2018-09-02T09:59:42.890Z,8.37
2018-09-02T10:02:11.874Z,8.87
2018-09-02T10:04:40.812Z,10.13
2018-09-02T10:07:09.742Z,9.40
2018-09-02T10:09:38.785Z,7.97
2018-09-02T10:12:07.748Z,8.47
2018-09-02T10:14:36.744Z,7.60
2018-09-02T10:17:05.807Z,8.50
2018-09-02T10:19:34.643Z,9.53
2018-09-02T10:22:03.556Z,8.97
2018-09-02T10:24:32.568Z,9.40
2018-09-02T10:27:01.449Z,7.57
2018-09-02T10:29:30.388Z,9.30
2018-09-02T10:31:59.273Z,9.00
2018-09-02T10:34:28.208Z,8.63
2018-09-02T10:36:57.120Z,8.43
2018-09-02T10:39:26.038Z,7.60
2018-09-02T10:41:55.032Z,8.60
2018-09-02T10:44:24.030Z,8.37
2018-09-02T10:46:53.016Z,7.60
2018-09-02T10:49:21.980Z,7.63
2018-09-02T10:51:50.910Z,7.43
2018-09-02T10:54:19.830Z,7.73
2018-09-02T10:56:48.728Z,7.97
2018-09-02T10:59:17.668Z,8.20
2018-09-02T11:01:46.580Z,9.47
2018-09-02T11:04:15.573Z,8.30
2018-09-02T11:06:44.454Z,9.00
2018-09-02T11:09:13.394Z,8.40
2018-09-02T11:11:42.369Z,7.93
2018-09-02T11:14:11.280Z,7.90
2018-09-02T11:16:40.250Z,7.70
2018-09-02T11:19:09.446Z,8.17
2018-09-02T11:21:38.378Z,8.60
2018-09-02T11:24:07.511Z,8.50
2018-09-02T11:26:36.412Z,7.33
2018-09-02T11:29:05.496Z,8.17
2018-09-02T11:31:34.407Z,8.10
2018-09-02T11:34:03.396Z,8.63
2018-09-02T11:36:32.328Z,8.20
2018-09-02T11:39:01.307Z,8.13
2018-09-02T11:41:30.248Z,8.50
2018-09-02T11:43:59.240Z,7.13
2018-09-02T11:46:28.170Z,5.97
2018-09-02T11:48:57.125Z,5.43
2018-09-02T11:51:26.087Z,6.37
2018-09-02T11:53:55.061Z,5.00
2018-09-02T11:56:23.946Z,5.73
2018-09-02T11:58:52.840Z,6.23
2018-09-02T12:01:21.800Z,4.80
2018-09-02T12:03:51.015Z,5.17
2018-09-02T12:06:19.940Z,5.07
2018-09-02T12:08:48.859Z,5.67
2018-09-02T12:11:17.725Z,5.30
2018-09-02T12:13:46.659Z,5.00
2018-09-02T12:16:15.587Z,4.97
2018-09-02T12:18:44.543Z,5.50
2018-09-02T12:21:13.522Z,5.80
2018-09-02T12:23:42.494Z,4.47
2018-09-02T12:26:11.582Z,4.37
2018-09-02T12:28:41.696Z,4.10
2018-09-02T12:31:10.648Z,5.00
2018-09-02T12:33:39.617Z,5.13
2018-09-02T12:36:09.175Z,4.53
2018-09-02T12:38:38.218Z,4.77
2018-09-02T12:41:07.247Z,3.97
2018-09-02T12:43:36.266Z,4.77
2018-09-02T12:46:05.212Z,4.67
2018-09-02T12:48:34.170Z,4.90
2018-09-02T12:51:03.116Z,5.20
2018-09-02T12:53:32.104Z,4.73
2018-09-02T12:56:01.057Z,4.67
2018-09-02T12:58:29.957Z,5.23
2018-09-02T13:00:58.917Z,4.67
2018-09-02T13:03:27.844Z,5.67
2018-09-02T13:05:56.838Z,4.60
2018-09-02T13:08:25.875Z,5.17
2018-09-02T13:10:54.859Z,5.33
2018-09-02T13:13:23.841Z,4.80
2018-09-02T13:15:52.818Z,5.40
2018-09-02T13:18:21.804Z,5.03
2018-09-02T13:20:50.743Z,4.83
2018-09-02T13:23:19.682Z,4.83
2018-09-02T13:25:48.655Z,4.60
2018-09-02T13:28:17.572Z,4.73
2018-09-02T13:30:47.526Z,4.20
2018-09-02T13:33:16.421Z,3.87
2018-09-02T13:35:45.387Z,4.20
2018-09-02T13:38:14.387Z,3.97
2018-09-02T13:40:43.614Z,4.27
2018-09-02T13:43:12.637Z,5.17
2018-09-02T13:45:45.231Z,4.40
2018-09-02T13:48:14.218Z,4.73
2018-09-02T13:50:43.259Z,4.40
2018-09-02T13:53:12.228Z,4.03
2018-09-02T13:55:41.157Z,3.67
2018-09-02T13:58:10.105Z,3.33
2018-09-02T14:00:39.021Z,3.27
2018-09-02T14:03:08.031Z,3.20
2018-09-02T14:05:36.915Z,3.80
2018-09-02T14:08:05.940Z,3.20
2018-09-02T14:10:35.580Z,3.40
2018-09-02T14:13:04.559Z,2.93
2018-09-02T14:15:33.819Z,3.37
2018-09-02T14:18:02.842Z,3.50
2018-09-02T14:20:31.733Z,3.23
2018-09-02T14:23:00.769Z,3.73
2018-09-02T14:25:29.660Z,3.43
2018-09-02T14:27:58.593Z,3.80
2018-09-02T14:30:27.527Z,3.57
2018-09-02T14:32:56.526Z,3.83
2018-09-02T14:35:25.614Z,3.37
2018-09-02T14:37:54.637Z,3.37
2018-09-02T14:40:23.655Z,3.30
2018-09-02T14:42:52.669Z,3.00
2018-09-02T14:45:21.635Z,3.30
2018-09-02T14:47:50.572Z,3.37
2018-09-02T14:50:19.873Z,2.77
2018-09-02T14:52:48.811Z,3.23
2018-09-02T14:55:17.737Z,3.40
2018-09-02T14:57:46.673Z,3.37
2018-09-02T15:00:15.595Z,3.27
2018-09-02T15:02:44.531Z,3.40
2018-09-02T15:05:14.550Z,3.00
2018-09-02T15:07:43.523Z,3.00
2018-09-02T15:10:12.440Z,2.70
2018-09-02T15:12:41.349Z,3.13
2018-09-02T15:15:10.446Z,2.80
2018-09-02T15:17:39.407Z,3.10
2018-09-02T15:20:08.387Z,3.00
2018-09-02T15:22:37.335Z,3.77
2018-09-02T15:25:06.337Z,3.73
2018-09-02T15:27:35.413Z,3.10
2018-09-02T15:30:04.653Z,4.30
2018-09-02T15:32:33.557Z,3.27
2018-09-02T15:35:02.659Z,3.10
2018-09-02T15:37:31.547Z,3.00
2018-09-02T15:40:00.516Z,3.40
2018-09-02T15:42:29.487Z,3.37
2018-09-02T15:44:58.570Z,3.80
2018-09-02T15:47:27.445Z,3.10
2018-09-02T15:49:56.355Z,3.53
2018-09-02T15:52:25.398Z,3.63
2018-09-02T15:54:54.239Z,3.30
2018-09-02T15:57:23.323Z,3.30
2018-09-02T15:59:52.339Z,3.53
2018-09-02T16:02:21.219Z,3.47
2018-09-02T16:04:50.183Z,3.53
2018-09-02T16:07:19.248Z,3.60
2018-09-02T16:09:49.211Z,3.53
2018-09-02T16:12:18.208Z,3.90
2018-09-02T16:14:47.231Z,3.20
2018-09-02T16:17:16.174Z,3.73
2018-09-02T16:19:45.079Z,3.27
2018-09-02T16:22:14.143Z,3.10
2018-09-02T16:24:43.067Z,3.23
2018-09-02T16:27:12.124Z,3.60
2018-09-02T16:29:41.046Z,2.93
2018-09-02T16:32:10.168Z,3.37
2018-09-02T16:34:39.036Z,3.73
2018-09-02T16:37:08.951Z,3.60
2018-09-02T16:39:38.309Z,3.53
2018-09-02T16:42:07.225Z,3.30
2018-09-02T16:44:36.133Z,3.47
2018-09-02T16:47:05.317Z,3.33
2018-09-02T16:49:34.231Z,4.03
2018-09-02T16:52:03.252Z,3.37
2018-09-02T16:54:32.261Z,3.60
2018-09-02T16:57:01.225Z,3.50
2018-09-02T16:59:30.323Z,3.13
2018-09-02T17:01:59.210Z,3.57
2018-09-02T17:04:30.648Z,3.97
2018-09-02T17:06:59.537Z,4.70
2018-09-02T17:09:28.428Z,4.07
2018-09-02T17:11:57.421Z,4.00
2018-09-02T17:14:26.330Z,4.17
2018-09-02T17:16:55.283Z,4.23
2018-09-02T17:19:26.550Z,3.73
2018-09-02T17:21:55.455Z,3.90
2018-09-02T17:24:24.390Z,3.43
2018-09-02T17:26:53.295Z,3.93
2018-09-02T17:29:22.231Z,4.27
2018-09-02T17:31:51.131Z,3.40
2018-09-02T17:34:20.095Z,4.07
2018-09-02T17:36:48.972Z,3.83
2018-09-02T17:39:17.847Z,3.77
2018-09-02T17:41:46.901Z,3.87
2018-09-02T17:44:15.787Z,3.90
2018-09-02T17:46:44.733Z,3.63
2018-09-02T17:49:13.666Z,3.77
2018-09-02T17:51:42.568Z,4.00
2018-09-02T17:54:11.827Z,3.97
2018-09-02T17:56:40.753Z,3.83
2018-09-02T17:59:09.741Z,4.17
2018-09-02T18:01:38.717Z,4.13
2018-09-02T18:04:07.647Z,3.70
2018-09-02T18:06:36.643Z,3.80
2018-09-02T18:09:08.649Z,4.50
2018-09-02T18:11:40.129Z,4.83
2018-09-02T18:14:15.319Z,4.07
2018-09-02T18:16:44.321Z,4.03
2018-09-02T18:19:13.321Z,4.87
2018-09-02T18:21:42.354Z,4.40
2018-09-02T18:24:24.801Z,4.10
2018-09-02T18:26:55.123Z,4.13
2018-09-02T18:29:24.088Z,4.63
2018-09-02T18:31:52.991Z,4.97
2018-09-02T18:34:42.794Z,5.10
2018-09-02T18:37:12.895Z,5.00
2018-09-02T18:39:45.750Z,5.30
2018-09-02T18:42:14.569Z,4.77
2018-09-02T18:44:43.535Z,4.70
2018-09-02T18:47:12.467Z,4.40
2018-09-02T18:49:56.077Z,4.77
2018-09-02T18:52:40.593Z,4.50
2018-09-02T18:55:10.337Z,4.37
2018-09-02T18:57:39.368Z,4.43
2018-09-02T19:00:15.757Z,3.97
2018-09-02T19:02:44.669Z,3.77
2018-09-02T19:05:13.871Z,4.07
2018-09-02T19:07:43.103Z,3.97
2018-09-02T19:10:18.077Z,4.10
2018-09-02T19:12:47.256Z,4.23
2018-09-02T19:15:17.372Z,4.80
2018-09-02T19:17:46.349Z,4.47
2018-09-02T19:20:15.346Z,4.47
2018-09-02T19:22:45.240Z,4.13
2018-09-02T19:25:28.590Z,4.30
2018-09-02T19:28:02.251Z,4.10
2018-09-02T19:30:31.680Z,4.33
2018-09-02T19:33:00.928Z,4.70
2018-09-02T19:35:30.042Z,4.60
2018-09-02T19:37:59.310Z,4.30
2018-09-02T19:40:28.882Z,4.67
2018-09-02T19:42:57.883Z,4.53
2018-09-02T19:45:27.143Z,4.90
2018-09-02T19:47:56.290Z,4.97
2018-09-02T19:50:25.257Z,4.33
2018-09-02T19:52:54.490Z,5.10
2018-09-02T19:55:23.470Z,4.83
2018-09-02T19:57:52.531Z,4.57
2018-09-02T20:00:21.456Z,5.00
2018-09-02T20:02:50.417Z,5.10
2018-09-02T20:05:19.504Z,4.83
2018-09-02T20:07:48.588Z,5.00
2018-09-02T20:10:17.571Z,4.60
2018-09-02T20:12:46.571Z,5.03
2018-09-02T20:15:15.487Z,4.70
2018-09-02T20:17:58.421Z,4.60
2018-09-02T20:34:15.137Z,4.37
2018-09-02T20:36:44.553Z,5.07
2018-09-02T20:39:13.893Z,4.90
2018-09-02T20:41:43.361Z,5.13
2018-09-02T20:44:19.583Z,5.10
2018-09-02T20:47:00.442Z,5.00
2018-09-02T20:49:35.979Z,4.77
2018-09-02T20:54:56.628Z,5.83
2018-09-02T20:57:32.868Z,5.23
2018-09-02T21:00:04.371Z,5.33
2018-09-02T21:02:34.592Z,4.93
2018-09-02T21:05:04.132Z,5.17
2018-09-02T21:07:34.218Z,5.43
2018-09-02T21:10:03.934Z,5.43
2018-09-02T21:12:33.482Z,5.07
2018-09-02T21:15:08.804Z,4.83
2018-09-02T21:17:39.092Z,5.97
2018-09-02T21:20:09.816Z,5.33
2018-09-02T21:22:39.742Z,5.00
2018-09-02T21:25:09.727Z,5.60
2018-09-02T21:27:42.949Z,5.30
2018-09-02T21:30:13.307Z,5.30
2018-09-02T21:32:44.424Z,5.63
2018-09-02T21:35:15.146Z,5.53
2018-09-02T21:37:48.190Z,5.67
2018-09-02T21:40:20.592Z,4.87
2018-09-02T21:42:55.830Z,5.50
2018-09-02T21:45:25.730Z,5.77
2018-09-02T21:47:56.383Z,5.47
2018-09-02T21:50:26.094Z,6.10
2018-09-02T21:52:55.828Z,5.23
2018-09-02T21:55:26.377Z,5.77
2018-09-02T21:57:55.830Z,5.53
2018-09-02T22:00:25.454Z,6.30
2018-09-02T22:04:25.100Z,6.53
2018-09-02T22:06:54.512Z,5.90
2018-09-02T22:09:24.853Z,6.23
2018-09-02T22:11:55.972Z,5.77
2018-09-02T22:14:26.658Z,6.17
2018-09-02T22:16:56.168Z,5.53
2018-09-02T22:19:28.792Z,6.67
2018-09-02T22:21:59.160Z,6.00
2018-09-02T22:24:30.836Z,6.47
2018-09-02T22:27:00.634Z,6.03
2018-09-02T22:29:30.507Z,6.10
2018-09-02T22:32:14.416Z,6.20
2018-09-02T22:37:43.533Z,6.27
2018-09-02T22:40:16.763Z,6.10
2018-09-02T22:42:45.667Z,6.17
2018-09-02T22:45:14.770Z,5.77
2018-09-02T22:47:44.495Z,5.83
2018-09-02T22:50:24.937Z,5.03
2018-09-02T22:52:54.207Z,5.43
2018-09-02T22:55:23.709Z,5.30
2018-09-02T22:57:53.589Z,6.00
2018-09-02T23:00:22.869Z,5.10
2018-09-02T23:02:52.351Z,5.53
2018-09-02T23:05:23.243Z,5.93
2018-09-02T23:07:52.614Z,5.93
2018-09-02T23:10:21.566Z,6.97
2018-09-02T23:12:50.594Z,6.00
2018-09-02T23:15:19.499Z,5.83
2018-09-02T23:17:48.749Z,5.73
2018-09-02T23:20:17.736Z,5.67
2018-09-02T23:22:51.082Z,5.77
2018-09-02T23:25:20.126Z,5.60
2018-09-02T23:27:52.268Z,5.87
2018-09-02T23:30:25.944Z,5.23
2018-09-02T23:32:54.868Z,5.97
2018-09-02T23:35:23.766Z,5.77
2018-09-02T23:37:52.759Z,6.53
2018-09-02T23:40:21.703Z,5.70
2018-09-02T23:42:50.602Z,6.07
2018-09-02T23:45:19.558Z,6.37
2018-09-02T23:47:53.598Z,6.43
2018-09-02T23:50:22.693Z,6.20
2018-09-02T23:52:51.608Z,5.47
2018-09-02T23:55:20.550Z,6.70
2018-09-02T23:57:49.516Z,5.93
